Time;durP1;ratioP1;P1;durP2;ratioP2;P2;SDS_P1;SDS_P2;PMS_P1;PMS_P2;Temp;Humidity;BMP_temperature;BMP_pressure;BME280_temperature;BME280_humidity;BME280_pressure;Samples;Min_cycle;Max_cycle;Signal;HPM_P1;HPM_P2
2022/10/14 00:00:45;;;;;;;16.40;9.93;;;;;;;;;;5116363;27;20485;-68
2022/10/14 00:03:12;;;;;;;19.20;10.23;;;;;;;;;;5115040;27;20459;-69
2022/10/14 00:05:41;;;;;;;14.97;9.53;;;;;;;;;;5115769;27;20454;-67
2022/10/14 00:08:09;;;;;;;14.73;10.70;;;;;;;;;;5116043;27;20474;-67
2022/10/14 00:10:44;;;;;;;13.80;10.67;;;;;;;;;;5115084;27;20480;-69
2022/10/14 00:13:12;;;;;;;15.90;10.10;;;;;;;;;;5100415;27;20461;-70
2022/10/14 00:15:39;;;;;;;16.10;10.60;;;;;;;;;;5115983;27;20456;-70
2022/10/14 00:18:06;;;;;;;17.20;10.20;;;;;;;;;;5115353;27;20486;-69
2022/10/14 00:20:34;;;;;;;20.43;11.37;;;;;;;;;;5115771;27;20709;-69
2022/10/14 00:23:01;;;;;;;16.47;10.97;;;;;;;;;;5116524;27;20469;-69
2022/10/14 00:25:28;;;;;;;16.47;11.67;;;;;;;;;;5116087;27;20794;-69
2022/10/14 00:27:55;;;;;;;16.47;13.00;;;;;;;;;;5115681;27;20454;-69
2022/10/14 00:30:22;;;;;;;21.57;12.17;;;;;;;;;;5115778;27;20468;-69
2022/10/14 00:32:49;;;;;;;25.93;13.50;;;;;;;;;;5117458;27;20446;-69
2022/10/14 00:35:19;;;;;;;18.33;12.67;;;;;;;;;;5119174;27;20557;-68
2022/10/14 00:37:46;;;;;;;22.73;13.23;;;;;;;;;;5119783;27;20481;-69
2022/10/14 00:40:16;;;;;;;19.87;12.57;;;;;;;;;;5119012;27;20458;-68
2022/10/14 00:42:43;;;;;;;26.03;14.17;;;;;;;;;;5118914;27;20523;-68
2022/10/14 00:45:13;;;;;;;18.10;11.67;;;;;;;;;;5118462;27;20473;-69
2022/10/14 00:47:44;;;;;;;20.90;12.50;;;;;;;;;;5118762;27;20462;-69
2022/10/14 00:50:12;;;;;;;22.30;13.43;;;;;;;;;;5119231;27;20887;-69
2022/10/14 00:52:39;;;;;;;21.17;13.27;;;;;;;;;;5113219;27;20467;-69
2022/10/14 00:55:08;;;;;;;21.07;12.50;;;;;;;;;;5115126;27;20519;-69
2022/10/14 00:57:35;;;;;;;20.07;13.17;;;;;;;;;;5119067;27;20553;-69
2022/10/14 01:00:05;;;;;;;21.20;13.10;;;;;;;;;;5119093;27;20454;-69
2022/10/14 01:02:32;;;;;;;22.27;13.30;;;;;;;;;;5116639;27;20467;-70
2022/10/14 01:05:00;;;;;;;26.30;13.07;;;;;;;;;;5103378;27;20443;-70
2022/10/14 01:07:31;;;;;;;20.43;14.10;;;;;;;;;;5120062;27;20790;-69
2022/10/14 01:10:03;;;;;;;21.63;11.43;;;;;;;;;;5118251;27;20546;-68
2022/10/14 01:12:34;;;;;;;22.70;13.20;;;;;;;;;;5118859;27;20454;-68
2022/10/14 01:15:05;;;;;;;20.93;12.77;;;;;;;;;;5117544;27;20458;-69
2022/10/14 01:17:36;;;;;;;20.50;11.50;;;;;;;;;;5102020;28;20567;-68
2022/10/14 01:20:16;;;;;;;22.20;12.20;;;;;;;;;;5113316;28;20496;-69
2022/10/14 01:22:47;;;;;;;20.60;12.97;;;;;;;;;;5118379;27;20469;-68
2022/10/14 01:25:25;;;;;;;22.13;13.87;;;;;;;;;;5112145;28;20871;-68
2022/10/14 01:28:01;;;;;;;20.10;12.40;;;;;;;;;;5106416;27;20562;-68
2022/10/14 01:30:30;;;;;;;20.83;14.10;;;;;;;;;;5114421;27;20490;-68
2022/10/14 01:33:06;;;;;;;25.13;14.37;;;;;;;;;;5098321;28;20627;-68
2022/10/14 01:35:39;;;;;;;19.27;12.13;;;;;;;;;;5097704;28;20443;-68
2022/10/14 01:38:15;;;;;;;21.40;13.80;;;;;;;;;;5106441;28;20479;-69
2022/10/14 01:40:46;;;;;;;24.20;12.30;;;;;;;;;;5118234;27;20949;-69
2022/10/14 01:43:13;;;;;;;18.37;12.20;;;;;;;;;;5114549;28;20456;-69
2022/10/14 01:45:45;;;;;;;19.60;12.13;;;;;;;;;;5109075;27;20470;-69
2022/10/14 01:48:13;;;;;;;16.80;12.43;;;;;;;;;;5118226;27;20450;-68
2022/10/14 01:50:43;;;;;;;21.97;13.37;;;;;;;;;;5117907;27;20466;-69
2022/10/14 01:53:13;;;;;;;19.50;12.30;;;;;;;;;;5118336;27;20473;-69
2022/10/14 01:55:42;;;;;;;23.80;12.77;;;;;;;;;;5117284;27;20478;-69
2022/10/14 01:58:10;;;;;;;21.20;12.10;;;;;;;;;;5118361;27;20988;-69
2022/10/14 02:00:37;;;;;;;21.60;12.53;;;;;;;;;;5117932;27;20485;-69
2022/10/14 02:03:05;;;;;;;19.13;11.87;;;;;;;;;;5118432;27;20466;-68
2022/10/14 02:05:34;;;;;;;19.20;13.30;;;;;;;;;;5118159;27;20738;-69
2022/10/14 02:08:04;;;;;;;18.93;12.90;;;;;;;;;;5118273;27;20789;-69
2022/10/14 02:10:38;;;;;;;22.20;13.43;;;;;;;;;;5118430;27;20462;-69
2022/10/14 02:13:11;;;;;;;21.10;12.40;;;;;;;;;;5117767;27;20447;-69
2022/10/14 02:15:42;;;;;;;20.07;12.43;;;;;;;;;;5117536;27;20736;-69
2022/10/14 02:18:13;;;;;;;22.03;13.63;;;;;;;;;;5096897;28;20501;-69
2022/10/14 02:20:42;;;;;;;22.80;13.53;;;;;;;;;;5097523;28;20471;-69
2022/10/14 02:23:13;;;;;;;23.90;13.47;;;;;;;;;;5117294;27;20446;-68
2022/10/14 02:25:41;;;;;;;19.97;13.30;;;;;;;;;;5117206;27;21006;-69
2022/10/14 02:28:09;;;;;;;22.83;12.80;;;;;;;;;;5118119;27;20477;-69
2022/10/14 02:30:38;;;;;;;22.63;13.33;;;;;;;;;;5117072;27;20461;-69
2022/10/14 02:33:05;;;;;;;25.37;13.40;;;;;;;;;;5116726;27;20451;-69
2022/10/14 02:35:33;;;;;;;24.83;14.30;;;;;;;;;;5117452;27;20465;-69
2022/10/14 02:38:00;;;;;;;25.33;14.30;;;;;;;;;;5116162;27;20817;-69
2022/10/14 02:40:29;;;;;;;23.80;13.40;;;;;;;;;;5116834;27;20461;-69
2022/10/14 02:42:56;;;;;;;31.60;15.07;;;;;;;;;;5116603;27;20469;-68
2022/10/14 02:45:25;;;;;;;23.77;13.90;;;;;;;;;;5116371;27;20443;-69
2022/10/14 02:47:52;;;;;;;17.90;13.03;;;;;;;;;;5116977;27;20867;-69
2022/10/14 02:50:19;;;;;;;27.93;15.10;;;;;;;;;;5117707;27;20450;-69
2022/10/14 02:52:46;;;;;;;28.60;16.00;;;;;;;;;;5117404;27;20458;-69
2022/10/14 02:55:13;;;;;;;30.37;15.97;;;;;;;;;;5116047;27;21043;-69
2022/10/14 02:57:40;;;;;;;20.03;13.23;;;;;;;;;;5117035;27;20479;-69
2022/10/14 03:00:08;;;;;;;26.40;14.90;;;;;;;;;;5117162;27;20949;-69
2022/10/14 03:02:35;;;;;;;28.60;14.53;;;;;;;;;;5116601;27;20757;-69
2022/10/14 03:05:02;;;;;;;28.63;15.20;;;;;;;;;;5117096;27;20451;-69
2022/10/14 03:07:29;;;;;;;29.47;15.03;;;;;;;;;;5116622;27;20888;-69
2022/10/14 03:09:57;;;;;;;28.00;15.73;;;;;;;;;;5116596;27;20447;-69
2022/10/14 03:12:27;;;;;;;28.90;14.77;;;;;;;;;;5116798;27;20459;-69
2022/10/14 03:14:54;;;;;;;28.57;15.83;;;;;;;;;;5116337;27;20450;-69
2022/10/14 03:17:21;;;;;;;27.17;16.57;;;;;;;;;;5126979;27;20487;-69
2022/10/14 03:19:48;;;;;;;25.60;17.20;;;;;;;;;;5116715;27;20442;-69
2022/10/14 03:22:15;;;;;;;24.57;15.57;;;;;;;;;;5116614;27;20467;-69
2022/10/14 03:24:42;;;;;;;19.87;14.30;;;;;;;;;;5116424;27;20454;-69
2022/10/14 03:27:10;;;;;;;25.40;15.43;;;;;;;;;;5115543;27;20628;-69
2022/10/14 03:29:39;;;;;;;24.90;14.00;;;;;;;;;;5116386;27;20455;-68
2022/10/14 03:32:06;;;;;;;25.20;14.83;;;;;;;;;;5115165;27;20442;-68
2022/10/14 03:34:33;;;;;;;25.70;15.27;;;;;;;;;;5116095;27;20447;-68
2022/10/14 03:37:00;;;;;;;26.20;15.90;;;;;;;;;;5114714;27;20483;-68
2022/10/14 03:39:27;;;;;;;28.97;15.60;;;;;;;;;;5116563;27;20519;-68
2022/10/14 03:41:54;;;;;;;26.23;14.53;;;;;;;;;;5115544;27;20859;-69
2022/10/14 03:44:22;;;;;;;30.93;17.27;;;;;;;;;;5116632;27;20477;-69
2022/10/14 03:46:48;;;;;;;28.53;15.97;;;;;;;;;;5116894;27;20762;-68
2022/10/14 03:49:15;;;;;;;23.20;13.67;;;;;;;;;;5116334;27;20465;-69
2022/10/14 03:51:42;;;;;;;27.03;15.20;;;;;;;;;;5115923;27;20455;-68
2022/10/14 03:54:09;;;;;;;26.73;15.30;;;;;;;;;;5116116;27;20855;-68
2022/10/14 03:56:36;;;;;;;27.53;14.67;;;;;;;;;;5115277;27;20483;-69
2022/10/14 03:59:03;;;;;;;28.07;14.63;;;;;;;;;;5114716;27;20557;-69
2022/10/14 04:01:31;;;;;;;31.33;14.97;;;;;;;;;;5114856;27;20471;-68
2022/10/14 04:03:58;;;;;;;24.90;13.73;;;;;;;;;;5112732;27;20470;-69
2022/10/14 04:06:25;;;;;;;26.00;14.00;;;;;;;;;;5114533;27;20471;-68
2022/10/14 04:08:52;;;;;;;21.73;14.43;;;;;;;;;;5115347;27;20454;-68
2022/10/14 04:11:19;;;;;;;30.00;15.87;;;;;;;;;;5115049;27;20455;-69
2022/10/14 04:13:46;;;;;;;26.63;15.27;;;;;;;;;;5115948;27;20462;-68
2022/10/14 04:16:13;;;;;;;25.30;14.77;;;;;;;;;;5114781;27;20439;-69
2022/10/14 04:18:40;;;;;;;26.60;13.87;;;;;;;;;;5115761;27;20524;-68
2022/10/14 04:21:09;;;;;;;21.33;14.30;;;;;;;;;;5114725;27;20534;-68
2022/10/14 04:23:36;;;;;;;26.83;15.50;;;;;;;;;;5115010;27;20464;-67
2022/10/14 04:26:03;;;;;;;31.27;17.30;;;;;;;;;;5115452;27;20542;-69
2022/10/14 04:28:30;;;;;;;30.67;16.07;;;;;;;;;;5114922;27;20545;-69
2022/10/14 04:30:57;;;;;;;33.03;16.10;;;;;;;;;;5098166;28;20885;-68
2022/10/14 04:33:24;;;;;;;26.27;15.60;;;;;;;;;;5114595;27;20454;-68
2022/10/14 04:35:56;;;;;;;22.30;14.87;;;;;;;;;;5114463;27;20537;-69
2022/10/14 04:38:23;;;;;;;26.00;15.30;;;;;;;;;;5114389;27;20490;-69
2022/10/14 04:40:50;;;;;;;25.53;14.40;;;;;;;;;;5115122;27;20459;-68
2022/10/14 04:43:17;;;;;;;27.30;15.90;;;;;;;;;;5114808;27;20443;-69
2022/10/14 04:45:44;;;;;;;28.07;15.27;;;;;;;;;;5114648;27;20545;-69
2022/10/14 04:48:11;;;;;;;24.27;14.77;;;;;;;;;;5114552;27;20455;-68
2022/10/14 04:50:41;;;;;;;29.57;16.37;;;;;;;;;;5114733;27;20815;-68
2022/10/14 04:53:08;;;;;;;32.53;16.73;;;;;;;;;;5114812;27;20912;-68
2022/10/14 04:55:36;;;;;;;30.63;15.50;;;;;;;;;;5114526;27;20462;-68
2022/10/14 04:58:03;;;;;;;23.80;14.27;;;;;;;;;;5114126;27;20474;-69
2022/10/14 05:00:30;;;;;;;29.30;15.33;;;;;;;;;;5113924;27;20462;-68
2022/10/14 05:02:57;;;;;;;29.73;15.70;;;;;;;;;;5114382;27;20770;-69
2022/10/14 05:05:24;;;;;;;25.67;15.67;;;;;;;;;;5113708;27;20554;-68
2022/10/14 05:07:54;;;;;;;29.90;16.07;;;;;;;;;;5114564;27;20872;-69
2022/10/14 05:10:25;;;;;;;29.80;16.33;;;;;;;;;;5112754;27;20553;-69
2022/10/14 05:12:52;;;;;;;23.13;15.13;;;;;;;;;;5113428;27;20473;-70
2022/10/14 05:15:19;;;;;;;28.70;14.87;;;;;;;;;;5112516;27;20450;-69
2022/10/14 05:17:46;;;;;;;32.00;17.37;;;;;;;;;;5112744;27;20482;-68
2022/10/14 05:20:13;;;;;;;24.50;14.53;;;;;;;;;;5114681;27;20463;-68
2022/10/14 05:22:40;;;;;;;25.07;14.80;;;;;;;;;;5115903;27;20863;-69
2022/10/14 05:25:07;;;;;;;37.33;16.33;;;;;;;;;;5114435;27;20462;-68
2022/10/14 05:27:35;;;;;;;27.00;15.40;;;;;;;;;;5115051;27;20455;-69
2022/10/14 05:30:02;;;;;;;28.60;14.77;;;;;;;;;;5114834;27;20975;-68
2022/10/14 05:32:29;;;;;;;31.47;17.03;;;;;;;;;;5114659;27;20450;-67
2022/10/14 05:34:59;;;;;;;33.77;16.90;;;;;;;;;;5114711;27;20546;-70
2022/10/14 05:37:44;;;;;;;;;;;;;;;;;;;;;
2022/10/14 05:40:24;;;;;;;28.70;17.13;;;;;;;;;;5114026;27;20461;-70
2022/10/14 05:42:52;;;;;;;24.53;15.20;;;;;;;;;;5114500;27;20463;-69
2022/10/14 05:45:19;;;;;;;24.50;15.27;;;;;;;;;;5106153;27;20464;-69
2022/10/14 05:47:47;;;;;;;29.50;16.00;;;;;;;;;;5112096;27;20462;-69
2022/10/14 05:50:17;;;;;;;38.90;18.27;;;;;;;;;;5115364;27;20545;-69
2022/10/14 05:52:46;;;;;;;32.23;18.07;;;;;;;;;;5114969;27;20447;-69
2022/10/14 05:55:13;;;;;;;38.07;17.30;;;;;;;;;;5114542;27;20447;-69
2022/10/14 05:57:42;;;;;;;33.77;19.07;;;;;;;;;;5114464;27;20482;-69
2022/10/14 06:00:18;;;;;;;33.23;14.33;;;;;;;;;;5114596;27;20832;-70
2022/10/14 06:02:45;;;;;;;33.17;17.60;;;;;;;;;;5113971;27;20549;-69
2022/10/14 06:05:13;;;;;;;31.17;18.60;;;;;;;;;;5111499;27;20463;-70
2022/10/14 06:07:40;;;;;;;35.10;16.50;;;;;;;;;;5111605;27;20469;-68
2022/10/14 06:10:09;;;;;;;35.53;17.53;;;;;;;;;;5114265;27;20451;-69
2022/10/14 06:12:37;;;;;;;33.93;18.63;;;;;;;;;;5114948;27;20509;-69
2022/10/14 06:15:05;;;;;;;29.60;17.90;;;;;;;;;;5113731;27;20469;-70
2022/10/14 06:17:33;;;;;;;31.77;18.20;;;;;;;;;;5114640;27;20544;-69
2022/10/14 06:20:03;;;;;;;33.83;18.10;;;;;;;;;;5113141;27;20442;-69
2022/10/14 06:22:33;;;;;;;30.50;17.90;;;;;;;;;;5112755;27;20469;-69
2022/10/14 06:25:00;;;;;;;34.00;18.30;;;;;;;;;;5112577;27;20435;-69
2022/10/14 06:27:28;;;;;;;31.13;17.90;;;;;;;;;;5114083;27;20463;-69
2022/10/14 06:29:59;;;;;;;39.63;22.00;;;;;;;;;;5112778;28;20459;-70
2022/10/14 06:32:35;;;;;;;36.20;18.87;;;;;;;;;;5101725;28;20458;-70
2022/10/14 06:35:08;;;;;;;34.97;18.77;;;;;;;;;;5107787;27;20737;-70
2022/10/14 06:37:35;;;;;;;40.97;20.23;;;;;;;;;;5106828;28;20575;-69
2022/10/14 06:40:03;;;;;;;45.83;22.07;;;;;;;;;;5112304;27;20440;-69
2022/10/14 06:42:44;;;;;;;38.07;19.40;;;;;;;;;;5110987;27;20446;-70
2022/10/14 06:45:24;;;;;;;37.83;18.80;;;;;;;;;;5111978;27;20454;-70
2022/10/14 06:47:51;;;;;;;44.07;23.63;;;;;;;;;;5105758;28;20993;-70
2022/10/14 06:50:19;;;;;;;34.23;18.57;;;;;;;;;;5104954;27;21118;-69
2022/10/14 06:52:56;;;;;;;41.47;19.10;;;;;;;;;;5111742;27;20465;-70
2022/10/14 06:55:43;;;;;;;41.37;19.17;;;;;;;;;;5114157;27;20463;-70
2022/10/14 06:58:13;;;;;;;37.40;20.47;;;;;;;;;;5113651;27;20486;-70
2022/10/14 07:00:48;;;;;;;34.10;19.73;;;;;;;;;;5104858;27;20473;-70
2022/10/14 07:03:19;;;;;;;37.70;20.87;;;;;;;;;;5102040;27;20473;-69
2022/10/14 07:05:50;;;;;;;47.70;20.60;;;;;;;;;;5106143;27;20465;-70
2022/10/14 07:08:26;;;;;;;43.77;19.70;;;;;;;;;;5110618;27;21027;-69
2022/10/14 07:10:55;;;;;;;36.77;20.73;;;;;;;;;;5112670;27;20458;-71
2022/10/14 07:13:25;;;;;;;43.47;21.70;;;;;;;;;;5099246;27;20575;-70
2022/10/14 07:16:00;;;;;;;49.50;23.13;;;;;;;;;;5107006;27;20478;-70
2022/10/14 07:18:30;;;;;;;49.37;23.23;;;;;;;;;;5113396;27;20488;-70
2022/10/14 07:21:02;;;;;;;38.40;23.07;;;;;;;;;;5113020;27;21051;-68
2022/10/14 07:23:30;;;;;;;41.77;21.77;;;;;;;;;;5109117;27;20474;-69
2022/10/14 07:25:59;;;;;;;37.87;22.13;;;;;;;;;;5103366;27;20524;-68
2022/10/14 07:28:26;;;;;;;32.30;19.53;;;;;;;;;;5108686;27;20519;-69
2022/10/14 07:30:58;;;;;;;38.00;19.17;;;;;;;;;;5105650;28;20481;-68
2022/10/14 07:33:25;;;;;;;37.90;21.07;;;;;;;;;;5109696;27;20466;-69
2022/10/14 07:35:52;;;;;;;41.67;20.30;;;;;;;;;;5102594;27;20467;-68
2022/10/14 07:38:20;;;;;;;36.00;20.47;;;;;;;;;;5103593;27;20483;-68
2022/10/14 07:40:57;;;;;;;38.80;20.87;;;;;;;;;;5092346;27;20881;-69
2022/10/14 07:43:24;;;;;;;36.57;20.77;;;;;;;;;;5108240;27;20946;-69
2022/10/14 07:45:59;;;;;;;42.63;20.53;;;;;;;;;;5117597;27;20512;-69
2022/10/14 07:48:42;;;;;;;38.03;22.00;;;;;;;;;;5118294;27;20505;-69
2022/10/14 07:51:18;;;;;;;34.10;21.27;;;;;;;;;;5108857;28;20473;-70
2022/10/14 07:53:49;;;;;;;38.87;20.90;;;;;;;;;;5111833;27;20543;-69
2022/10/14 07:56:20;;;;;;;37.20;19.73;;;;;;;;;;5087752;27;20758;-69
2022/10/14 07:58:47;;;;;;;36.30;19.73;;;;;;;;;;5093794;28;20540;-68
2022/10/14 08:01:42;;;;;;;34.40;20.80;;;;;;;;;;5105446;27;20550;-69
2022/10/14 08:04:12;;;;;;;34.57;20.43;;;;;;;;;;5101409;28;20751;-68
2022/10/14 08:06:39;;;;;;;100.87;41.13;;;;;;;;;;5104949;28;20470;-68
2022/10/14 08:09:28;;;;;;;33.97;21.23;;;;;;;;;;5106667;28;20463;-69
2022/10/14 08:12:06;;;;;;;35.53;20.93;;;;;;;;;;5086713;28;20472;-69
2022/10/14 08:14:36;;;;;;;25.33;17.17;;;;;;;;;;5105740;27;20449;-69
2022/10/14 08:17:36;;;;;;;;;;;;;;;;;;;;;
2022/10/14 08:20:11;;;;;;;28.97;18.50;;;;;;;;;;5102500;27;20461;-70
2022/10/14 08:22:52;;;;;;;29.30;17.10;;;;;;;;;;5111405;27;20473;-69
2022/10/14 08:28:20;;;;;;;28.60;19.13;;;;;;;;;;5092316;27;20874;-69
2022/10/14 08:30:51;;;;;;;29.57;17.97;;;;;;;;;;5088156;28;20470;-70
2022/10/14 08:33:18;;;;;;;24.67;15.17;;;;;;;;;;5100498;27;20454;-69
2022/10/14 08:35:45;;;;;;;30.57;18.30;;;;;;;;;;5102561;27;20477;-69
2022/10/14 08:38:12;;;;;;;29.53;18.17;;;;;;;;;;5101932;27;20489;-70
2022/10/14 08:40:49;;;;;;;28.40;18.93;;;;;;;;;;5101161;28;20456;-68
2022/10/14 08:43:26;;;;;;;28.97;17.27;;;;;;;;;;5104530;27;20466;-69
2022/10/14 08:45:57;;;;;;;30.33;16.90;;;;;;;;;;5107715;27;20464;-69
2022/10/14 08:48:26;;;;;;;28.70;17.97;;;;;;;;;;5098025;27;20897;-68
2022/10/14 08:51:03;;;;;;;29.53;18.43;;;;;;;;;;5099162;28;20468;-69
2022/10/14 08:53:33;;;;;;;26.97;16.13;;;;;;;;;;5106284;27;20467;-68
2022/10/14 08:56:02;;;;;;;28.27;16.23;;;;;;;;;;5098682;28;20459;-69
2022/10/14 08:58:44;;;;;;;27.47;16.90;;;;;;;;;;5114943;27;20510;-68
2022/10/14 09:01:15;;;;;;;29.17;15.67;;;;;;;;;;5119312;27;20666;-67
2022/10/14 09:03:43;;;;;;;25.20;15.70;;;;;;;;;;5095178;28;20451;-68
2022/10/14 09:06:12;;;;;;;25.70;16.97;;;;;;;;;;5113479;27;20450;-68
2022/10/14 09:08:41;;;;;;;28.63;17.33;;;;;;;;;;5114762;27;20513;-69
2022/10/14 09:11:12;;;;;;;26.00;16.70;;;;;;;;;;5101595;27;20583;-69
2022/10/14 09:13:44;;;;;;;24.70;14.80;;;;;;;;;;5103158;28;20467;-70
2022/10/14 09:16:22;;;;;;;25.70;16.67;;;;;;;;;;5121671;27;20857;-71
2022/10/14 09:18:50;;;;;;;30.30;16.37;;;;;;;;;;5106409;28;21060;-68
2022/10/14 09:21:30;;;;;;;22.80;14.23;;;;;;;;;;5112896;27;21121;-68
2022/10/14 09:23:59;;;;;;;23.70;14.80;;;;;;;;;;5105528;27;20740;-70
2022/10/14 09:26:30;;;;;;;24.60;14.30;;;;;;;;;;5112775;27;20950;-70
2022/10/14 09:32:10;;;;;;;21.50;14.50;;;;;;;;;;5105470;27;20637;-70
2022/10/14 09:34:43;;;;;;;22.03;13.10;;;;;;;;;;5105978;27;20748;-70
2022/10/14 09:37:21;;;;;;;19.27;13.70;;;;;;;;;;5115336;28;20508;-70
2022/10/14 09:39:50;;;;;;;22.20;15.03;;;;;;;;;;5098861;27;20458;-69
2022/10/14 09:42:19;;;;;;;20.13;12.70;;;;;;;;;;5095598;28;20464;-69
2022/10/14 09:45:04;;;;;;;23.10;13.33;;;;;;;;;;5103656;27;20893;-69
2022/10/14 09:47:31;;;;;;;17.40;12.37;;;;;;;;;;5110225;27;20466;-69
2022/10/14 09:50:02;;;;;;;19.77;12.30;;;;;;;;;;5116020;27;20889;-70
2022/10/14 09:52:33;;;;;;;14.80;9.90;;;;;;;;;;5096255;27;20455;-70
2022/10/14 09:55:01;;;;;;;15.10;11.50;;;;;;;;;;5110721;28;20565;-70
2022/10/14 09:57:32;;;;;;;18.23;12.17;;;;;;;;;;5108569;28;21082;-69
2022/10/14 10:00:02;;;;;;;15.17;10.60;;;;;;;;;;5115428;27;20870;-69
2022/10/14 10:02:35;;;;;;;14.50;9.20;;;;;;;;;;5112545;27;20542;-69
2022/10/14 10:05:12;;;;;;;14.07;9.07;;;;;;;;;;5115119;27;20455;-72
2022/10/14 10:07:41;;;;;;;12.67;8.93;;;;;;;;;;5109823;27;20505;-72
2022/10/14 10:10:17;;;;;;;15.70;10.27;;;;;;;;;;5112514;27;21055;-69
2022/10/14 10:12:47;;;;;;;13.43;9.60;;;;;;;;;;5114423;27;20447;-68
2022/10/14 10:15:23;;;;;;;19.80;10.83;;;;;;;;;;5096458;28;20524;-71
2022/10/14 10:17:59;;;;;;;12.83;9.20;;;;;;;;;;5093835;28;20498;-70
2022/10/14 10:20:30;;;;;;;13.83;9.23;;;;;;;;;;5100802;28;20552;-70
2022/10/14 10:22:58;;;;;;;13.20;9.80;;;;;;;;;;5116099;27;20936;-69
2022/10/14 10:25:26;;;;;;;13.53;8.60;;;;;;;;;;5114709;27;20786;-69
2022/10/14 10:27:59;;;;;;;14.27;8.80;;;;;;;;;;5098919;28;20475;-69
2022/10/14 10:30:28;;;;;;;13.30;9.07;;;;;;;;;;5115386;27;20480;-71
2022/10/14 10:32:58;;;;;;;12.57;9.03;;;;;;;;;;5117662;27;20450;-70
2022/10/14 10:35:28;;;;;;;13.63;10.20;;;;;;;;;;5115232;27;20492;-68
2022/10/14 10:38:05;;;;;;;12.70;9.60;;;;;;;;;;5104328;27;20480;-68
2022/10/14 10:40:35;;;;;;;15.97;10.90;;;;;;;;;;5111069;27;20472;-70
2022/10/14 10:43:10;;;;;;;16.13;9.13;;;;;;;;;;5112359;27;20577;-68
2022/10/14 10:45:43;;;;;;;15.33;9.70;;;;;;;;;;5115894;27;20454;-69
2022/10/14 10:48:14;;;;;;;12.27;8.43;;;;;;;;;;5114868;27;20532;-68
2022/10/14 10:50:44;;;;;;;13.67;9.20;;;;;;;;;;5111275;27;20458;-68
2022/10/14 10:53:43;;;;;;;15.43;9.30;;;;;;;;;;5116992;27;20644;-69
2022/10/14 10:56:13;;;;;;;17.60;9.97;;;;;;;;;;5019486;28;20455;-70
2022/10/14 10:58:43;;;;;;;16.83;10.90;;;;;;;;;;5074941;28;20588;-69
2022/10/14 11:01:20;;;;;;;15.40;10.50;;;;;;;;;;5113164;27;20459;-69
2022/10/14 11:03:56;;;;;;;14.53;9.33;;;;;;;;;;5098185;28;20531;-69
2022/10/14 11:12:16;;;;;;;14.97;9.17;;;;;;;;;;5110701;28;20454;-69
2022/10/14 11:14:50;;;;;;;13.80;9.20;;;;;;;;;;5117776;27;20473;-71
2022/10/14 11:17:27;;;;;;;14.27;8.70;;;;;;;;;;5092594;27;20486;-70
2022/10/14 11:19:59;;;;;;;10.90;6.70;;;;;;;;;;5095006;27;20889;-70
2022/10/14 11:22:39;;;;;;;11.93;7.60;;;;;;;;;;5109593;27;20893;-69
2022/10/14 11:25:16;;;;;;;11.47;7.30;;;;;;;;;;5112919;27;20501;-71
2022/10/14 11:27:46;;;;;;;9.73;6.17;;;;;;;;;;5107438;27;20531;-70
2022/10/14 11:30:16;;;;;;;11.00;8.00;;;;;;;;;;5106496;27;20555;-69
2022/10/14 11:32:48;;;;;;;9.23;6.73;;;;;;;;;;5117894;27;20462;-70
2022/10/14 11:35:24;;;;;;;8.50;6.20;;;;;;;;;;5112015;27;20465;-70
2022/10/14 11:37:57;;;;;;;9.90;7.20;;;;;;;;;;5109074;27;20489;-70
2022/10/14 11:40:28;;;;;;;6.93;5.53;;;;;;;;;;5086515;27;20911;-70
2022/10/14 11:43:06;;;;;;;7.63;5.67;;;;;;;;;;5101513;27;20531;-70
2022/10/14 11:45:46;;;;;;;9.23;5.67;;;;;;;;;;5112658;27;20878;-69
2022/10/14 11:48:20;;;;;;;10.10;4.57;;;;;;;;;;5098872;27;20462;-69
2022/10/14 11:50:49;;;;;;;7.80;4.83;;;;;;;;;;5107778;27;20451;-70
2022/10/14 11:53:19;;;;;;;7.30;5.80;;;;;;;;;;5115475;27;20477;-69
2022/10/14 11:55:58;;;;;;;8.63;5.80;;;;;;;;;;5114628;27;20752;-69
2022/10/14 11:58:26;;;;;;;9.33;5.47;;;;;;;;;;5096794;28;20560;-69
2022/10/14 12:00:55;;;;;;;8.07;5.73;;;;;;;;;;5092025;28;20443;-70
2022/10/14 12:03:27;;;;;;;10.63;7.27;;;;;;;;;;5108245;27;20737;-69
2022/10/14 12:05:58;;;;;;;7.80;5.30;;;;;;;;;;5112306;27;20451;-70
2022/10/14 12:08:29;;;;;;;7.30;5.10;;;;;;;;;;5112220;27;20549;-68
2022/10/14 12:11:01;;;;;;;8.00;5.10;;;;;;;;;;5115010;27;20795;-70
2022/10/14 12:13:33;;;;;;;5.53;4.77;;;;;;;;;;5111866;27;20521;-70
2022/10/14 12:16:04;;;;;;;8.40;6.10;;;;;;;;;;5113000;27;20472;-70
2022/10/14 12:18:32;;;;;;;8.07;5.00;;;;;;;;;;5107105;27;20486;-70
2022/10/14 12:21:03;;;;;;;11.40;7.40;;;;;;;;;;5112117;27;20450;-71
2022/10/14 12:23:32;;;;;;;9.60;6.20;;;;;;;;;;5110042;27;20549;-69
2022/10/14 12:26:04;;;;;;;8.40;5.23;;;;;;;;;;5111516;28;20446;-69
2022/10/14 12:28:32;;;;;;;7.50;5.47;;;;;;;;;;5099797;28;20483;-70
2022/10/14 12:31:15;;;;;;;7.57;6.20;;;;;;;;;;5093051;27;21129;-69
2022/10/14 12:33:57;;;;;;;10.67;5.27;;;;;;;;;;5113044;27;20460;-69
2022/10/14 12:36:33;;;;;;;9.97;6.80;;;;;;;;;;5115293;27;20450;-69
2022/10/14 12:39:18;;;;;;;9.30;6.90;;;;;;;;;;5099903;27;20516;-70
2022/10/14 12:41:52;;;;;;;11.67;6.40;;;;;;;;;;5107223;27;20470;-69
2022/10/14 12:44:20;;;;;;;11.23;6.60;;;;;;;;;;5110884;27;20472;-70
2022/10/14 12:46:48;;;;;;;10.33;5.97;;;;;;;;;;5109613;27;20459;-70
2022/10/14 12:49:23;;;;;;;8.83;6.00;;;;;;;;;;5096490;27;20471;-69
2022/10/14 12:51:54;;;;;;;8.03;5.80;;;;;;;;;;5115608;27;20465;-69
2022/10/14 12:54:22;;;;;;;10.07;6.60;;;;;;;;;;5115733;28;20616;-69
2022/10/14 12:57:03;;;;;;;8.90;6.00;;;;;;;;;;5104654;27;20498;-70
2022/10/14 12:59:31;;;;;;;8.53;6.00;;;;;;;;;;5109200;28;20451;-70
2022/10/14 13:02:03;;;;;;;8.10;5.43;;;;;;;;;;5121435;27;20582;-70
2022/10/14 13:04:31;;;;;;;8.77;5.23;;;;;;;;;;5135444;27;20517;-70
2022/10/14 13:07:29;;;;;;;9.27;6.27;;;;;;;;;;5100279;28;20564;-69
2022/10/14 13:10:00;;;;;;;8.03;5.40;;;;;;;;;;5113111;27;20462;-70
2022/10/14 13:12:43;;;;;;;11.13;6.70;;;;;;;;;;5120958;27;20453;-70
2022/10/14 13:15:28;;;;;;;13.33;6.00;;;;;;;;;;5118302;27;20772;-71
2022/10/14 13:17:56;;;;;;;7.53;5.70;;;;;;;;;;5098110;27;20487;-70
2022/10/14 13:20:42;;;;;;;10.93;7.43;;;;;;;;;;5107454;28;20450;-70
2022/10/14 13:23:22;;;;;;;10.43;6.33;;;;;;;;;;5112847;27;20526;-70
2022/10/14 13:25:52;;;;;;;8.80;5.47;;;;;;;;;;5117240;27;20482;-70
2022/10/14 13:28:30;;;;;;;7.70;5.80;;;;;;;;;;5112940;27;21107;-70
2022/10/14 13:31:01;;;;;;;7.60;5.43;;;;;;;;;;5122879;27;20445;-70
2022/10/14 13:33:34;;;;;;;8.93;5.50;;;;;;;;;;5122348;27;20862;-70
2022/10/14 13:36:08;;;;;;;10.93;7.27;;;;;;;;;;5115563;27;20450;-70
2022/10/14 13:38:36;;;;;;;9.23;6.53;;;;;;;;;;5114700;27;20494;-70
2022/10/14 13:41:04;;;;;;;9.90;6.90;;;;;;;;;;5112765;27;20470;-70
2022/10/14 13:43:35;;;;;;;10.80;6.13;;;;;;;;;;5119919;27;20433;-69
2022/10/14 13:46:04;;;;;;;9.03;6.30;;;;;;;;;;5103831;28;20459;-69
2022/10/14 13:48:33;;;;;;;11.57;6.90;;;;;;;;;;5105586;27;20519;-69
2022/10/14 13:51:07;;;;;;;7.57;5.50;;;;;;;;;;5109861;27;20989;-68
2022/10/14 13:53:34;;;;;;;8.20;6.20;;;;;;;;;;5114952;27;20450;-69
2022/10/14 13:56:03;;;;;;;9.97;6.83;;;;;;;;;;5114314;27;20530;-70
2022/10/14 13:58:30;;;;;;;11.53;7.30;;;;;;;;;;5099082;27;20843;-70
2022/10/14 14:01:00;;;;;;;9.73;6.80;;;;;;;;;;5114159;27;20471;-68
2022/10/14 14:03:31;;;;;;;11.20;6.50;;;;;;;;;;5113140;27;20574;-70
2022/10/14 14:06:02;;;;;;;9.83;6.87;;;;;;;;;;5102834;27;20472;-70
2022/10/14 14:08:31;;;;;;;9.07;6.20;;;;;;;;;;5095956;27;20454;-70
2022/10/14 14:11:00;;;;;;;12.00;7.43;;;;;;;;;;5094036;27;20515;-71
2022/10/14 14:13:28;;;;;;;10.13;6.47;;;;;;;;;;5107587;27;20515;-70
2022/10/14 14:16:03;;;;;;;9.77;7.07;;;;;;;;;;5112664;27;21009;-69
2022/10/14 14:18:35;;;;;;;13.10;7.90;;;;;;;;;;5110465;27;20485;-71
2022/10/14 14:21:03;;;;;;;8.10;6.07;;;;;;;;;;5103922;28;20475;-71
2022/10/14 14:23:31;;;;;;;9.77;7.17;;;;;;;;;;5094508;27;21042;-69
2022/10/14 14:25:58;;;;;;;9.67;5.63;;;;;;;;;;5112956;27;20916;-69
2022/10/14 14:28:27;;;;;;;10.50;6.83;;;;;;;;;;5114010;27;20443;-68
2022/10/14 14:30:56;;;;;;;11.30;6.90;;;;;;;;;;5113167;27;20519;-70
2022/10/14 14:33:27;;;;;;;9.60;6.73;;;;;;;;;;5086483;28;20463;-70
2022/10/14 14:35:56;;;;;;;14.23;8.37;;;;;;;;;;5115823;27;20457;-69
2022/10/14 14:38:27;;;;;;;9.30;7.13;;;;;;;;;;5110789;27;20953;-70
2022/10/14 14:41:01;;;;;;;10.23;6.60;;;;;;;;;;5114675;27;20451;-69
2022/10/14 14:43:29;;;;;;;11.10;7.13;;;;;;;;;;5108963;27;20810;-70
2022/10/14 14:45:57;;;;;;;9.70;7.07;;;;;;;;;;5114555;27;20448;-70
2022/10/14 14:48:33;;;;;;;10.20;7.50;;;;;;;;;;5107163;27;20460;-71
2022/10/14 14:51:04;;;;;;;9.17;6.33;;;;;;;;;;5112406;27;20468;-69
2022/10/14 14:53:31;;;;;;;9.30;5.73;;;;;;;;;;5113481;27;20458;-69
2022/10/14 14:56:00;;;;;;;9.57;6.37;;;;;;;;;;5114862;27;20521;-68
2022/10/14 14:58:28;;;;;;;10.67;6.43;;;;;;;;;;5114303;27;20486;-68